sensor_id;sensor_type;location;lat;lon;timestamp;temperature;humidity
10788;DHT22;5446;50.826;4.380;2023-12-20T00:00:02;6.70;99.90
10788;DHT22;5446;50.826;4.380;2023-12-20T00:02:28;6.60;99.90
10788;DHT22;5446;50.826;4.380;2023-12-20T00:04:54;6.60;99.90
10788;DHT22;5446;50.826;4.380;2023-12-20T00:07:19;6.50;99.90
10788;DHT22;5446;50.826;4.380;2023-12-20T00:09:45;6.60;99.90
10788;DHT22;5446;50.826;4.380;2023-12-20T00:12:11;6.60;99.90
10788;DHT22;5446;50.826;4.380;2023-12-20T00:14:36;6.60;99.90
10788;DHT22;5446;50.826;4.380;2023-12-20T00:17:02;6.60;99.90
10788;DHT22;5446;50.826;4.380;2023-12-20T00:19:28;6.70;99.90
10788;DHT22;5446;50.826;4.380;2023-12-20T00:21:54;6.60;99.90
10788;DHT22;5446;50.826;4.380;2023-12-20T00:24:19;6.60;99.90
10788;DHT22;5446;50.826;4.380;2023-12-20T00:26:46;6.50;99.90
10788;DHT22;5446;50.826;4.380;2023-12-20T00:29:12;6.50;99.90
10788;DHT22;5446;50.826;4.380;2023-12-20T00:31:38;6.40;99.90
10788;DHT22;5446;50.826;4.380;2023-12-20T00:34:03;6.40;99.90
10788;DHT22;5446;50.826;4.380;2023-12-20T00:36:29;6.40;99.90
10788;DHT22;5446;50.826;4.380;2023-12-20T00:38:55;6.30;99.90
10788;DHT22;5446;50.826;4.380;2023-12-20T00:41:21;6.30;99.90
10788;DHT22;5446;50.826;4.380;2023-12-20T00:43:46;6.30;99.90
10788;DHT22;5446;50.826;4.380;2023-12-20T00:46:12;6.30;99.90
10788;DHT22;5446;50.826;4.380;2023-12-20T00:48:38;6.20;99.90
10788;DHT22;5446;50.826;4.380;2023-12-20T00:51:04;6.20;99.90
10788;DHT22;5446;50.826;4.380;2023-12-20T00:53:30;6.20;99.90
10788;DHT22;5446;50.826;4.380;2023-12-20T00:55:55;6.20;99.90
10788;DHT22;5446;50.826;4.380;2023-12-20T00:58:21;6.20;99.90
10788;DHT22;5446;50.826;4.380;2023-12-20T01:00:47;6.20;99.90
10788;DHT22;5446;50.826;4.380;2023-12-20T01:03:14;6.10;99.90
10788;DHT22;5446;50.826;4.380;2023-12-20T01:05:40;6.10;99.90
10788;DHT22;5446;50.826;4.380;2023-12-20T01:08:06;6.10;99.90
10788;DHT22;5446;50.826;4.380;2023-12-20T01:10:32;6.00;99.90
10788;DHT22;5446;50.826;4.380;2023-12-20T01:12:58;6.00;99.90
10788;DHT22;5446;50.826;4.380;2023-12-20T01:15:23;6.00;99.90
10788;DHT22;5446;50.826;4.380;2023-12-20T01:17:49;6.00;99.90
10788;DHT22;5446;50.826;4.380;2023-12-20T01:20:15;6.00;99.90
10788;DHT22;5446;50.826;4.380;2023-12-20T01:22:41;6.00;99.90
10788;DHT22;5446;50.826;4.380;2023-12-20T01:25:08;5.90;99.90
10788;DHT22;5446;50.826;4.380;2023-12-20T01:27:34;6.00;99.90
10788;DHT22;5446;50.826;4.380;2023-12-20T01:30:00;5.90;99.90
10788;DHT22;5446;50.826;4.380;2023-12-20T01:32:26;5.90;99.90
10788;DHT22;5446;50.826;4.380;2023-12-20T01:34:52;5.90;99.90
10788;DHT22;5446;50.826;4.380;2023-12-20T01:37:19;5.90;99.90
10788;DHT22;5446;50.826;4.380;2023-12-20T01:39:45;5.90;99.90
10788;DHT22;5446;50.826;4.380;2023-12-20T01:42:13;5.90;99.90
10788;DHT22;5446;50.826;4.380;2023-12-20T01:44:39;5.90;99.90
10788;DHT22;5446;50.826;4.380;2023-12-20T01:47:05;5.90;99.90
10788;DHT22;5446;50.826;4.380;2023-12-20T01:49:31;5.80;99.90
10788;DHT22;5446;50.826;4.380;2023-12-20T01:51:57;5.80;99.90
10788;DHT22;5446;50.826;4.380;2023-12-20T01:54:23;5.80;99.90
10788;DHT22;5446;50.826;4.380;2023-12-20T01:56:49;5.80;99.90
10788;DHT22;5446;50.826;4.380;2023-12-20T01:59:17;5.80;99.90
10788;DHT22;5446;50.826;4.380;2023-12-20T02:01:43;5.80;99.90
10788;DHT22;5446;50.826;4.380;2023-12-20T02:04:09;5.80;99.90
10788;DHT22;5446;50.826;4.380;2023-12-20T02:06:35;5.90;99.90
10788;DHT22;5446;50.826;4.380;2023-12-20T02:09:02;5.90;99.90
10788;DHT22;5446;50.826;4.380;2023-12-20T02:11:28;5.90;99.90
10788;DHT22;5446;50.826;4.380;2023-12-20T02:13:54;5.80;99.90
10788;DHT22;5446;50.826;4.380;2023-12-20T02:16:21;5.80;99.90
10788;DHT22;5446;50.826;4.380;2023-12-20T02:18:47;5.80;99.90
10788;DHT22;5446;50.826;4.380;2023-12-20T02:21:13;5.80;99.90
10788;DHT22;5446;50.826;4.380;2023-12-20T02:23:38;5.80;99.90
10788;DHT22;5446;50.826;4.380;2023-12-20T02:26:04;5.70;99.90
10788;DHT22;5446;50.826;4.380;2023-12-20T02:28:32;5.70;99.90
10788;DHT22;5446;50.826;4.380;2023-12-20T02:30:57;5.70;99.90
10788;DHT22;5446;50.826;4.380;2023-12-20T02:33:23;5.70;99.90
10788;DHT22;5446;50.826;4.380;2023-12-20T02:35:49;5.70;99.90
10788;DHT22;5446;50.826;4.380;2023-12-20T02:38:15;5.70;99.90
10788;DHT22;5446;50.826;4.380;2023-12-20T02:40:41;5.70;99.90
10788;DHT22;5446;50.826;4.380;2023-12-20T02:43:06;5.70;99.90
10788;DHT22;5446;50.826;4.380;2023-12-20T02:45:32;5.70;99.90
10788;DHT22;5446;50.826;4.380;2023-12-20T02:47:58;5.70;99.90
10788;DHT22;5446;50.826;4.380;2023-12-20T02:50:24;5.70;99.90
10788;DHT22;5446;50.826;4.380;2023-12-20T02:52:50;5.70;99.90
10788;DHT22;5446;50.826;4.380;2023-12-20T02:55:15;5.70;99.90
10788;DHT22;5446;50.826;4.380;2023-12-20T02:57:41;5.70;99.90
10788;DHT22;5446;50.826;4.380;2023-12-20T03:00:08;5.70;99.90
10788;DHT22;5446;50.826;4.380;2023-12-20T03:02:35;5.70;99.90
10788;DHT22;5446;50.826;4.380;2023-12-20T03:05:01;5.70;99.90
10788;DHT22;5446;50.826;4.380;2023-12-20T03:07:27;5.80;99.90
10788;DHT22;5446;50.826;4.380;2023-12-20T03:09:52;5.80;99.90
10788;DHT22;5446;50.826;4.380;2023-12-20T03:12:18;5.80;99.90
10788;DHT22;5446;50.826;4.380;2023-12-20T03:14:44;5.90;99.90
10788;DHT22;5446;50.826;4.380;2023-12-20T03:17:10;5.90;99.90
10788;DHT22;5446;50.826;4.380;2023-12-20T03:19:36;5.90;99.90
10788;DHT22;5446;50.826;4.380;2023-12-20T03:22:02;5.90;99.90
10788;DHT22;5446;50.826;4.380;2023-12-20T03:24:27;5.90;99.90
10788;DHT22;5446;50.826;4.380;2023-12-20T03:26:53;5.90;99.90
10788;DHT22;5446;50.826;4.380;2023-12-20T03:29:19;6.00;99.90
10788;DHT22;5446;50.826;4.380;2023-12-20T03:31:45;6.00;99.90
10788;DHT22;5446;50.826;4.380;2023-12-20T03:34:11;5.90;99.90
10788;DHT22;5446;50.826;4.380;2023-12-20T03:36:37;5.90;99.90
10788;DHT22;5446;50.826;4.380;2023-12-20T03:39:03;5.90;99.90
10788;DHT22;5446;50.826;4.380;2023-12-20T03:41:29;6.00;99.90
10788;DHT22;5446;50.826;4.380;2023-12-20T03:43:54;5.90;99.90
10788;DHT22;5446;50.826;4.380;2023-12-20T03:46:20;5.90;99.90
10788;DHT22;5446;50.826;4.380;2023-12-20T03:48:46;5.90;99.90
10788;DHT22;5446;50.826;4.380;2023-12-20T03:51:11;5.90;99.90
10788;DHT22;5446;50.826;4.380;2023-12-20T03:53:37;5.90;99.90
10788;DHT22;5446;50.826;4.380;2023-12-20T03:56:03;5.80;99.90
10788;DHT22;5446;50.826;4.380;2023-12-20T03:58:29;5.80;99.90
10788;DHT22;5446;50.826;4.380;2023-12-20T04:00:55;5.80;99.90
10788;DHT22;5446;50.826;4.380;2023-12-20T04:03:20;5.80;99.90
10788;DHT22;5446;50.826;4.380;2023-12-20T04:05:46;5.80;99.90
10788;DHT22;5446;50.826;4.380;2023-12-20T04:08:12;5.80;99.90
10788;DHT22;5446;50.826;4.380;2023-12-20T04:10:38;5.80;99.90
10788;DHT22;5446;50.826;4.380;2023-12-20T04:13:04;5.90;99.90
10788;DHT22;5446;50.826;4.380;2023-12-20T04:15:30;5.90;99.90
10788;DHT22;5446;50.826;4.380;2023-12-20T04:17:55;5.90;99.90
10788;DHT22;5446;50.826;4.380;2023-12-20T04:20:21;5.90;99.90
10788;DHT22;5446;50.826;4.380;2023-12-20T04:22:47;5.80;99.90
10788;DHT22;5446;50.826;4.380;2023-12-20T04:25:12;5.80;99.90
10788;DHT22;5446;50.826;4.380;2023-12-20T04:27:38;5.80;99.90
10788;DHT22;5446;50.826;4.380;2023-12-20T04:30:04;5.80;99.90
10788;DHT22;5446;50.826;4.380;2023-12-20T04:32:30;5.80;99.90
10788;DHT22;5446;50.826;4.380;2023-12-20T04:34:57;5.80;99.90
10788;DHT22;5446;50.826;4.380;2023-12-20T04:37:22;5.80;99.90
10788;DHT22;5446;50.826;4.380;2023-12-20T04:39:48;5.80;99.90
10788;DHT22;5446;50.826;4.380;2023-12-20T04:42:14;5.80;99.90
10788;DHT22;5446;50.826;4.380;2023-12-20T04:44:40;5.80;99.90
10788;DHT22;5446;50.826;4.380;2023-12-20T04:47:05;5.80;99.90
10788;DHT22;5446;50.826;4.380;2023-12-20T04:49:31;5.80;99.90
10788;DHT22;5446;50.826;4.380;2023-12-20T04:51:57;5.80;99.90
10788;DHT22;5446;50.826;4.380;2023-12-20T04:54:23;5.90;99.90
10788;DHT22;5446;50.826;4.380;2023-12-20T04:56:49;5.80;99.90
10788;DHT22;5446;50.826;4.380;2023-12-20T04:59:15;5.80;99.90
10788;DHT22;5446;50.826;4.380;2023-12-20T05:01:41;5.80;99.90
10788;DHT22;5446;50.826;4.380;2023-12-20T05:04:07;5.90;99.90
10788;DHT22;5446;50.826;4.380;2023-12-20T05:06:32;5.90;99.90
10788;DHT22;5446;50.826;4.380;2023-12-20T05:08:58;5.90;99.90
10788;DHT22;5446;50.826;4.380;2023-12-20T05:11:24;5.90;99.90
10788;DHT22;5446;50.826;4.380;2023-12-20T05:13:56;5.90;99.90
10788;DHT22;5446;50.826;4.380;2023-12-20T05:16:21;5.90;99.90
10788;DHT22;5446;50.826;4.380;2023-12-20T05:18:48;5.90;99.90
10788;DHT22;5446;50.826;4.380;2023-12-20T05:21:15;5.80;99.90
10788;DHT22;5446;50.826;4.380;2023-12-20T05:23:40;5.90;99.90
10788;DHT22;5446;50.826;4.380;2023-12-20T05:26:06;5.80;99.90
10788;DHT22;5446;50.826;4.380;2023-12-20T05:28:32;5.70;99.90
10788;DHT22;5446;50.826;4.380;2023-12-20T05:30:57;5.70;99.90
10788;DHT22;5446;50.826;4.380;2023-12-20T05:33:24;5.70;99.90
10788;DHT22;5446;50.826;4.380;2023-12-20T05:35:50;5.60;99.90
10788;DHT22;5446;50.826;4.380;2023-12-20T05:38:16;5.60;99.90
10788;DHT22;5446;50.826;4.380;2023-12-20T05:40:42;5.50;99.90
10788;DHT22;5446;50.826;4.380;2023-12-20T05:43:07;5.50;99.90
10788;DHT22;5446;50.826;4.380;2023-12-20T05:45:33;5.40;99.90
10788;DHT22;5446;50.826;4.380;2023-12-20T05:47:59;5.40;99.90
10788;DHT22;5446;50.826;4.380;2023-12-20T05:50:25;5.40;99.90
10788;DHT22;5446;50.826;4.380;2023-12-20T05:52:51;5.30;99.90
10788;DHT22;5446;50.826;4.380;2023-12-20T05:55:17;5.30;99.90
10788;DHT22;5446;50.826;4.380;2023-12-20T05:57:42;5.20;99.90
10788;DHT22;5446;50.826;4.380;2023-12-20T06:00:09;5.20;99.90
10788;DHT22;5446;50.826;4.380;2023-12-20T06:02:35;5.20;99.90
10788;DHT22;5446;50.826;4.380;2023-12-20T06:05:04;5.20;99.90
10788;DHT22;5446;50.826;4.380;2023-12-20T06:07:30;5.20;99.90
10788;DHT22;5446;50.826;4.380;2023-12-20T06:09:55;5.20;99.90
10788;DHT22;5446;50.826;4.380;2023-12-20T06:12:21;5.20;99.90
10788;DHT22;5446;50.826;4.380;2023-12-20T06:14:48;5.20;99.90
10788;DHT22;5446;50.826;4.380;2023-12-20T06:17:14;5.30;99.90
10788;DHT22;5446;50.826;4.380;2023-12-20T06:19:40;5.30;99.90
10788;DHT22;5446;50.826;4.380;2023-12-20T06:22:05;5.30;99.90
10788;DHT22;5446;50.826;4.380;2023-12-20T06:24:31;5.30;99.90
10788;DHT22;5446;50.826;4.380;2023-12-20T06:26:59;5.30;99.90
10788;DHT22;5446;50.826;4.380;2023-12-20T06:29:24;5.30;99.90
10788;DHT22;5446;50.826;4.380;2023-12-20T06:31:51;5.40;99.90
10788;DHT22;5446;50.826;4.380;2023-12-20T06:34:17;5.40;99.90
10788;DHT22;5446;50.826;4.380;2023-12-20T06:36:42;5.40;99.90
10788;DHT22;5446;50.826;4.380;2023-12-20T06:39:08;5.40;99.90
10788;DHT22;5446;50.826;4.380;2023-12-20T06:41:34;5.40;99.90
10788;DHT22;5446;50.826;4.380;2023-12-20T06:44:00;5.30;99.90
10788;DHT22;5446;50.826;4.380;2023-12-20T06:46:25;5.30;99.90
10788;DHT22;5446;50.826;4.380;2023-12-20T06:48:51;5.30;99.90
10788;DHT22;5446;50.826;4.380;2023-12-20T06:51:17;5.30;99.90
10788;DHT22;5446;50.826;4.380;2023-12-20T06:53:45;5.20;99.90
10788;DHT22;5446;50.826;4.380;2023-12-20T06:56:11;5.20;99.90
10788;DHT22;5446;50.826;4.380;2023-12-20T06:58:38;5.10;99.90
10788;DHT22;5446;50.826;4.380;2023-12-20T07:01:04;5.10;99.90
10788;DHT22;5446;50.826;4.380;2023-12-20T07:03:31;5.10;99.90
10788;DHT22;5446;50.826;4.380;2023-12-20T07:05:57;5.00;99.90
10788;DHT22;5446;50.826;4.380;2023-12-20T07:08:23;5.00;99.90
10788;DHT22;5446;50.826;4.380;2023-12-20T07:10:49;4.90;99.90
10788;DHT22;5446;50.826;4.380;2023-12-20T07:13:14;4.90;99.90
10788;DHT22;5446;50.826;4.380;2023-12-20T07:15:40;4.90;99.90
10788;DHT22;5446;50.826;4.380;2023-12-20T07:18:06;4.90;99.90
10788;DHT22;5446;50.826;4.380;2023-12-20T07:20:32;5.00;99.90
10788;DHT22;5446;50.826;4.380;2023-12-20T07:22:58;5.00;99.90
10788;DHT22;5446;50.826;4.380;2023-12-20T07:25:24;4.90;99.90
10788;DHT22;5446;50.826;4.380;2023-12-20T07:27:51;4.90;99.90
10788;DHT22;5446;50.826;4.380;2023-12-20T07:30:17;4.90;99.90
10788;DHT22;5446;50.826;4.380;2023-12-20T07:32:42;4.90;99.90
10788;DHT22;5446;50.826;4.380;2023-12-20T07:35:08;4.90;99.90
10788;DHT22;5446;50.826;4.380;2023-12-20T07:37:34;4.90;99.90
10788;DHT22;5446;50.826;4.380;2023-12-20T07:40:00;4.90;99.90
10788;DHT22;5446;50.826;4.380;2023-12-20T07:42:25;4.90;99.90
10788;DHT22;5446;50.826;4.380;2023-12-20T07:44:51;4.80;99.90
10788;DHT22;5446;50.826;4.380;2023-12-20T07:47:17;4.80;99.90
10788;DHT22;5446;50.826;4.380;2023-12-20T07:49:49;4.80;99.90
10788;DHT22;5446;50.826;4.380;2023-12-20T07:52:15;4.80;99.90
10788;DHT22;5446;50.826;4.380;2023-12-20T07:54:40;4.80;99.90
10788;DHT22;5446;50.826;4.380;2023-12-20T07:57:06;4.80;99.90
10788;DHT22;5446;50.826;4.380;2023-12-20T07:59:32;4.80;99.90
10788;DHT22;5446;50.826;4.380;2023-12-20T08:01:58;4.80;99.90
10788;DHT22;5446;50.826;4.380;2023-12-20T08:04:23;4.90;99.90
10788;DHT22;5446;50.826;4.380;2023-12-20T08:06:50;4.80;99.90
10788;DHT22;5446;50.826;4.380;2023-12-20T08:09:15;4.80;99.90
10788;DHT22;5446;50.826;4.380;2023-12-20T08:11:48;4.80;99.90
10788;DHT22;5446;50.826;4.380;2023-12-20T08:14:14;4.90;99.90
10788;DHT22;5446;50.826;4.380;2023-12-20T08:16:40;4.90;99.90
10788;DHT22;5446;50.826;4.380;2023-12-20T08:19:06;4.90;99.90
10788;DHT22;5446;50.826;4.380;2023-12-20T08:21:31;4.90;99.90
10788;DHT22;5446;50.826;4.380;2023-12-20T08:23:57;4.90;99.90
10788;DHT22;5446;50.826;4.380;2023-12-20T08:26:23;4.90;99.90
10788;DHT22;5446;50.826;4.380;2023-12-20T08:28:50;4.90;99.90
10788;DHT22;5446;50.826;4.380;2023-12-20T08:31:17;5.00;99.90
10788;DHT22;5446;50.826;4.380;2023-12-20T08:33:44;5.00;99.90
10788;DHT22;5446;50.826;4.380;2023-12-20T08:36:10;5.00;99.90
10788;DHT22;5446;50.826;4.380;2023-12-20T08:38:36;5.00;99.90
10788;DHT22;5446;50.826;4.380;2023-12-20T08:41:02;5.10;99.90
10788;DHT22;5446;50.826;4.380;2023-12-20T08:43:32;5.00;99.90
10788;DHT22;5446;50.826;4.380;2023-12-20T08:45:59;5.00;99.90
10788;DHT22;5446;50.826;4.380;2023-12-20T08:48:24;5.00;99.90
10788;DHT22;5446;50.826;4.380;2023-12-20T08:50:50;5.10;99.90
10788;DHT22;5446;50.826;4.380;2023-12-20T08:53:18;5.10;99.90
10788;DHT22;5446;50.826;4.380;2023-12-20T08:55:44;5.10;99.90
10788;DHT22;5446;50.826;4.380;2023-12-20T08:58:10;5.10;99.90
10788;DHT22;5446;50.826;4.380;2023-12-20T09:00:36;5.10;99.90
10788;DHT22;5446;50.826;4.380;2023-12-20T09:03:02;5.20;99.90
10788;DHT22;5446;50.826;4.380;2023-12-20T09:05:28;5.20;99.90
10788;DHT22;5446;50.826;4.380;2023-12-20T09:07:54;5.20;99.90
10788;DHT22;5446;50.826;4.380;2023-12-20T09:10:19;5.30;99.90
10788;DHT22;5446;50.826;4.380;2023-12-20T09:12:51;5.30;99.90
10788;DHT22;5446;50.826;4.380;2023-12-20T09:15:25;5.30;99.90
10788;DHT22;5446;50.826;4.380;2023-12-20T09:17:51;5.40;99.90
10788;DHT22;5446;50.826;4.380;2023-12-20T09:20:16;5.40;99.90
10788;DHT22;5446;50.826;4.380;2023-12-20T09:22:42;5.50;99.90
10788;DHT22;5446;50.826;4.380;2023-12-20T09:25:10;5.50;99.90
10788;DHT22;5446;50.826;4.380;2023-12-20T09:27:36;5.50;99.90
10788;DHT22;5446;50.826;4.380;2023-12-20T09:30:02;5.60;99.90
10788;DHT22;5446;50.826;4.380;2023-12-20T09:32:29;5.60;99.90
10788;DHT22;5446;50.826;4.380;2023-12-20T09:34:55;5.70;99.90
10788;DHT22;5446;50.826;4.380;2023-12-20T09:37:20;5.70;99.90
10788;DHT22;5446;50.826;4.380;2023-12-20T09:39:46;5.70;99.90
10788;DHT22;5446;50.826;4.380;2023-12-20T09:42:16;5.80;99.90
10788;DHT22;5446;50.826;4.380;2023-12-20T09:44:44;5.90;99.90
10788;DHT22;5446;50.826;4.380;2023-12-20T09:47:10;6.00;99.90
10788;DHT22;5446;50.826;4.380;2023-12-20T09:49:36;6.00;99.90
10788;DHT22;5446;50.826;4.380;2023-12-20T09:52:05;6.10;99.90
10788;DHT22;5446;50.826;4.380;2023-12-20T09:54:32;6.20;99.90
10788;DHT22;5446;50.826;4.380;2023-12-20T09:56:58;6.20;99.90
10788;DHT22;5446;50.826;4.380;2023-12-20T09:59:24;6.20;99.90
10788;DHT22;5446;50.826;4.380;2023-12-20T10:01:51;6.30;99.90
10788;DHT22;5446;50.826;4.380;2023-12-20T10:04:20;6.40;99.90
10788;DHT22;5446;50.826;4.380;2023-12-20T10:06:46;6.50;99.90
10788;DHT22;5446;50.826;4.380;2023-12-20T10:09:13;6.50;99.90
10788;DHT22;5446;50.826;4.380;2023-12-20T10:11:39;6.50;99.90
10788;DHT22;5446;50.826;4.380;2023-12-20T10:14:06;6.40;99.90
10788;DHT22;5446;50.826;4.380;2023-12-20T10:16:33;6.40;99.90
10788;DHT22;5446;50.826;4.380;2023-12-20T10:19:00;6.40;99.90
10788;DHT22;5446;50.826;4.380;2023-12-20T10:21:27;6.50;99.90
10788;DHT22;5446;50.826;4.380;2023-12-20T10:23:57;6.50;99.90
10788;DHT22;5446;50.826;4.380;2023-12-20T10:26:27;6.60;99.90
10788;DHT22;5446;50.826;4.380;2023-12-20T10:28:54;6.60;99.90
10788;DHT22;5446;50.826;4.380;2023-12-20T10:31:34;6.70;99.90
10788;DHT22;5446;50.826;4.380;2023-12-20T10:34:04;6.80;99.90
10788;DHT22;5446;50.826;4.380;2023-12-20T10:36:33;6.80;99.90
10788;DHT22;5446;50.826;4.380;2023-12-20T10:39:00;6.90;99.90
10788;DHT22;5446;50.826;4.380;2023-12-20T10:41:31;6.90;99.90
10788;DHT22;5446;50.826;4.380;2023-12-20T10:44:02;7.00;99.90
10788;DHT22;5446;50.826;4.380;2023-12-20T10:46:29;7.00;99.90
10788;DHT22;5446;50.826;4.380;2023-12-20T10:48:56;7.10;99.90
10788;DHT22;5446;50.826;4.380;2023-12-20T10:51:23;7.10;99.90
10788;DHT22;5446;50.826;4.380;2023-12-20T10:53:52;7.10;99.90
10788;DHT22;5446;50.826;4.380;2023-12-20T10:56:18;7.20;99.90
10788;DHT22;5446;50.826;4.380;2023-12-20T10:58:49;7.30;99.90
10788;DHT22;5446;50.826;4.380;2023-12-20T11:01:16;7.40;99.90
10788;DHT22;5446;50.826;4.380;2023-12-20T11:03:51;7.40;99.90
10788;DHT22;5446;50.826;4.380;2023-12-20T11:06:33;7.40;99.90
10788;DHT22;5446;50.826;4.380;2023-12-20T11:09:26;7.50;99.90
10788;DHT22;5446;50.826;4.380;2023-12-20T11:12:15;7.50;99.90
10788;DHT22;5446;50.826;4.380;2023-12-20T11:14:50;7.50;99.90
10788;DHT22;5446;50.826;4.380;2023-12-20T11:17:16;7.50;99.90
10788;DHT22;5446;50.826;4.380;2023-12-20T11:22:25;7.50;99.90
10788;DHT22;5446;50.826;4.380;2023-12-20T11:24:52;7.50;99.90
10788;DHT22;5446;50.826;4.380;2023-12-20T11:27:19;7.50;99.90
10788;DHT22;5446;50.826;4.380;2023-12-20T11:29:52;7.60;99.90
10788;DHT22;5446;50.826;4.380;2023-12-20T11:35:01;7.50;99.90
10788;DHT22;5446;50.826;4.380;2023-12-20T11:37:41;7.50;99.90
10788;DHT22;5446;50.826;4.380;2023-12-20T11:40:14;7.50;99.90
10788;DHT22;5446;50.826;4.380;2023-12-20T11:42:45;7.50;99.90
10788;DHT22;5446;50.826;4.380;2023-12-20T11:45:13;7.40;99.90
10788;DHT22;5446;50.826;4.380;2023-12-20T11:47:44;7.50;99.90
10788;DHT22;5446;50.826;4.380;2023-12-20T11:50:11;7.50;99.90
10788;DHT22;5446;50.826;4.380;2023-12-20T11:52:36;7.50;99.90
10788;DHT22;5446;50.826;4.380;2023-12-20T11:55:02;7.50;99.90
10788;DHT22;5446;50.826;4.380;2023-12-20T11:57:30;7.60;99.90
10788;DHT22;5446;50.826;4.380;2023-12-20T11:59:55;7.60;99.90
10788;DHT22;5446;50.826;4.380;2023-12-20T12:02:21;7.70;99.90
10788;DHT22;5446;50.826;4.380;2023-12-20T12:04:49;7.70;99.90
10788;DHT22;5446;50.826;4.380;2023-12-20T12:07:18;7.70;99.90
10788;DHT22;5446;50.826;4.380;2023-12-20T12:09:44;7.80;99.90
10788;DHT22;5446;50.826;4.380;2023-12-20T12:12:11;7.80;99.90
10788;DHT22;5446;50.826;4.380;2023-12-20T12:14:38;7.80;99.90
10788;DHT22;5446;50.826;4.380;2023-12-20T12:17:04;7.90;99.90
10788;DHT22;5446;50.826;4.380;2023-12-20T12:19:30;8.00;99.90
10788;DHT22;5446;50.826;4.380;2023-12-20T12:22:05;8.00;99.90
10788;DHT22;5446;50.826;4.380;2023-12-20T12:24:32;8.00;99.90
10788;DHT22;5446;50.826;4.380;2023-12-20T12:26:58;8.00;99.90
10788;DHT22;5446;50.826;4.380;2023-12-20T12:29:24;8.00;99.90
10788;DHT22;5446;50.826;4.380;2023-12-20T12:31:50;8.00;99.90
10788;DHT22;5446;50.826;4.380;2023-12-20T12:34:17;8.00;99.90
10788;DHT22;5446;50.826;4.380;2023-12-20T12:36:43;8.00;99.90
10788;DHT22;5446;50.826;4.380;2023-12-20T12:39:12;8.00;99.90
10788;DHT22;5446;50.826;4.380;2023-12-20T12:41:41;8.00;99.90
10788;DHT22;5446;50.826;4.380;2023-12-20T12:44:06;8.10;99.90
10788;DHT22;5446;50.826;4.380;2023-12-20T12:46:32;8.00;99.90
10788;DHT22;5446;50.826;4.380;2023-12-20T12:48:58;8.00;99.90
10788;DHT22;5446;50.826;4.380;2023-12-20T12:51:24;8.00;99.90
10788;DHT22;5446;50.826;4.380;2023-12-20T12:53:49;8.00;99.90
10788;DHT22;5446;50.826;4.380;2023-12-20T12:56:15;8.10;99.90
10788;DHT22;5446;50.826;4.380;2023-12-20T12:58:41;8.00;99.90
10788;DHT22;5446;50.826;4.380;2023-12-20T13:01:07;8.00;99.90
10788;DHT22;5446;50.826;4.380;2023-12-20T13:03:33;8.10;99.90
10788;DHT22;5446;50.826;4.380;2023-12-20T13:05:59;8.10;99.90
10788;DHT22;5446;50.826;4.380;2023-12-20T13:08:25;8.10;99.90
10788;DHT22;5446;50.826;4.380;2023-12-20T13:10:51;8.10;99.90
10788;DHT22;5446;50.826;4.380;2023-12-20T13:13:17;8.20;99.90
10788;DHT22;5446;50.826;4.380;2023-12-20T13:15:43;8.10;99.90
10788;DHT22;5446;50.826;4.380;2023-12-20T13:18:16;8.10;99.90
10788;DHT22;5446;50.826;4.380;2023-12-20T13:20:42;8.10;99.90
10788;DHT22;5446;50.826;4.380;2023-12-20T13:23:08;8.10;99.90
10788;DHT22;5446;50.826;4.380;2023-12-20T13:25:34;8.20;99.90
10788;DHT22;5446;50.826;4.380;2023-12-20T13:27:59;8.20;99.90
10788;DHT22;5446;50.826;4.380;2023-12-20T13:30:25;8.30;99.90
10788;DHT22;5446;50.826;4.380;2023-12-20T13:32:51;8.40;99.90
10788;DHT22;5446;50.826;4.380;2023-12-20T13:35:17;8.40;99.90
10788;DHT22;5446;50.826;4.380;2023-12-20T13:37:42;8.40;99.90
10788;DHT22;5446;50.826;4.380;2023-12-20T13:40:10;8.40;99.90
10788;DHT22;5446;50.826;4.380;2023-12-20T13:42:36;8.50;99.90
10788;DHT22;5446;50.826;4.380;2023-12-20T13:45:01;8.40;99.90
10788;DHT22;5446;50.826;4.380;2023-12-20T13:47:27;8.40;99.90
10788;DHT22;5446;50.826;4.380;2023-12-20T13:49:56;8.50;99.90
10788;DHT22;5446;50.826;4.380;2023-12-20T13:52:21;8.50;99.90
10788;DHT22;5446;50.826;4.380;2023-12-20T13:54:47;8.50;99.90
10788;DHT22;5446;50.826;4.380;2023-12-20T13:57:13;8.50;99.90
10788;DHT22;5446;50.826;4.380;2023-12-20T13:59:39;8.50;99.90
10788;DHT22;5446;50.826;4.380;2023-12-20T14:02:05;8.50;99.90
10788;DHT22;5446;50.826;4.380;2023-12-20T14:04:31;8.50;99.90
10788;DHT22;5446;50.826;4.380;2023-12-20T14:06:57;8.50;99.90
10788;DHT22;5446;50.826;4.380;2023-12-20T14:09:23;8.60;99.90
10788;DHT22;5446;50.826;4.380;2023-12-20T14:11:49;8.60;99.90
10788;DHT22;5446;50.826;4.380;2023-12-20T14:14:14;8.60;99.90
10788;DHT22;5446;50.826;4.380;2023-12-20T14:16:40;8.60;99.90
10788;DHT22;5446;50.826;4.380;2023-12-20T14:19:08;8.60;99.90
10788;DHT22;5446;50.826;4.380;2023-12-20T14:21:35;8.60;99.90
10788;DHT22;5446;50.826;4.380;2023-12-20T14:24:01;8.60;99.90
10788;DHT22;5446;50.826;4.380;2023-12-20T14:26:26;8.60;99.90
10788;DHT22;5446;50.826;4.380;2023-12-20T14:28:53;8.60;99.90
10788;DHT22;5446;50.826;4.380;2023-12-20T14:31:19;8.60;99.90
10788;DHT22;5446;50.826;4.380;2023-12-20T14:33:45;8.70;99.90
10788;DHT22;5446;50.826;4.380;2023-12-20T14:36:11;8.70;99.90
10788;DHT22;5446;50.826;4.380;2023-12-20T14:38:37;8.60;99.90
10788;DHT22;5446;50.826;4.380;2023-12-20T14:41:03;8.70;99.90
10788;DHT22;5446;50.826;4.380;2023-12-20T14:43:31;8.70;99.90
10788;DHT22;5446;50.826;4.380;2023-12-20T14:45:57;8.70;99.90
10788;DHT22;5446;50.826;4.380;2023-12-20T14:48:22;8.70;99.90
10788;DHT22;5446;50.826;4.380;2023-12-20T14:50:48;8.80;99.90
10788;DHT22;5446;50.826;4.380;2023-12-20T14:53:15;8.80;99.90
10788;DHT22;5446;50.826;4.380;2023-12-20T14:55:42;8.70;99.90
10788;DHT22;5446;50.826;4.380;2023-12-20T14:58:08;8.80;99.90
10788;DHT22;5446;50.826;4.380;2023-12-20T15:00:33;8.70;99.90
10788;DHT22;5446;50.826;4.380;2023-12-20T15:02:59;8.80;99.90
10788;DHT22;5446;50.826;4.380;2023-12-20T15:05:25;8.80;99.90
10788;DHT22;5446;50.826;4.380;2023-12-20T15:07:52;8.80;99.90
10788;DHT22;5446;50.826;4.380;2023-12-20T15:10:18;8.80;99.90
10788;DHT22;5446;50.826;4.380;2023-12-20T15:12:44;8.80;99.90
10788;DHT22;5446;50.826;4.380;2023-12-20T15:15:11;8.80;99.90
10788;DHT22;5446;50.826;4.380;2023-12-20T15:17:37;8.80;99.90
10788;DHT22;5446;50.826;4.380;2023-12-20T15:20:03;8.80;99.90
10788;DHT22;5446;50.826;4.380;2023-12-20T15:22:34;8.80;99.90
10788;DHT22;5446;50.826;4.380;2023-12-20T15:25:00;8.80;99.90
10788;DHT22;5446;50.826;4.380;2023-12-20T15:27:27;8.80;99.90
10788;DHT22;5446;50.826;4.380;2023-12-20T15:29:52;8.90;99.90
10788;DHT22;5446;50.826;4.380;2023-12-20T15:32:18;8.80;99.90
10788;DHT22;5446;50.826;4.380;2023-12-20T15:34:45;8.80;99.90
10788;DHT22;5446;50.826;4.380;2023-12-20T15:37:11;8.80;99.90
10788;DHT22;5446;50.826;4.380;2023-12-20T15:39:36;8.80;99.90
10788;DHT22;5446;50.826;4.380;2023-12-20T15:42:02;8.80;99.90
10788;DHT22;5446;50.826;4.380;2023-12-20T15:44:28;8.80;99.90
10788;DHT22;5446;50.826;4.380;2023-12-20T15:46:54;8.80;99.90
10788;DHT22;5446;50.826;4.380;2023-12-20T15:49:20;8.80;99.90
10788;DHT22;5446;50.826;4.380;2023-12-20T15:51:46;8.90;99.90
10788;DHT22;5446;50.826;4.380;2023-12-20T15:54:12;8.90;99.90
10788;DHT22;5446;50.826;4.380;2023-12-20T15:56:38;8.90;99.90
10788;DHT22;5446;50.826;4.380;2023-12-20T15:59:06;8.90;99.90
10788;DHT22;5446;50.826;4.380;2023-12-20T16:01:32;8.90;99.90